sensor_id;sensor_type;location;lat;lon;timestamp;pressure;altitude;pressure_sealevel;temperature;humidity
13068;BME280;6600;51.362;6.686;2023-02-28T00:00:12;102601.47;;;2.06;90.66
13068;BME280;6600;51.362;6.686;2023-02-28T00:02:43;102597.56;;;2.23;88.14
13068;BME280;6600;51.362;6.686;2023-02-28T00:05:10;102600.81;;;2.26;87.58
13068;BME280;6600;51.362;6.686;2023-02-28T00:07:36;102597.72;;;2.32;87.13
13068;BME280;6600;51.362;6.686;2023-02-28T00:10:03;102599.06;;;2.38;86.34
13068;BME280;6600;51.362;6.686;2023-02-28T00:12:29;102590.41;;;2.47;85.80
13068;BME280;6600;51.362;6.686;2023-02-28T00:14:54;102600.75;;;2.50;85.45
13068;BME280;6600;51.362;6.686;2023-02-28T00:17:20;102596.06;;;2.53;85.16
13068;BME280;6600;51.362;6.686;2023-02-28T00:19:49;102601.38;;;2.53;84.97
13068;BME280;6600;51.362;6.686;2023-02-28T00:22:16;102597.41;;;2.48;85.53
13068;BME280;6600;51.362;6.686;2023-02-28T00:24:41;102592.94;;;2.48;84.90
13068;BME280;6600;51.362;6.686;2023-02-28T00:27:07;102598.94;;;2.39;85.42
13068;BME280;6600;51.362;6.686;2023-02-28T00:29:32;102603.75;;;2.34;86.00
13068;BME280;6600;51.362;6.686;2023-02-28T00:31:57;102601.09;;;2.34;85.74
13068;BME280;6600;51.362;6.686;2023-02-28T00:34:23;102605.78;;;2.31;86.01
13068;BME280;6600;51.362;6.686;2023-02-28T00:36:48;102604.94;;;2.30;86.04
13068;BME280;6600;51.362;6.686;2023-02-28T00:39:14;102602.63;;;2.26;86.16
13068;BME280;6600;51.362;6.686;2023-02-28T00:41:39;102610.66;;;2.24;86.37
13068;BME280;6600;51.362;6.686;2023-02-28T00:44:04;102605.38;;;2.24;85.96
13068;BME280;6600;51.362;6.686;2023-02-28T00:46:30;102599.38;;;2.22;86.35
13068;BME280;6600;51.362;6.686;2023-02-28T00:48:55;102601.78;;;2.25;85.96
13068;BME280;6600;51.362;6.686;2023-02-28T00:51:20;102598.41;;;2.23;85.56
13068;BME280;6600;51.362;6.686;2023-02-28T00:53:46;102610.03;;;2.21;84.90
13068;BME280;6600;51.362;6.686;2023-02-28T00:56:11;102604.75;;;2.21;84.54
13068;BME280;6600;51.362;6.686;2023-02-28T00:58:36;102611.59;;;2.12;84.94
13068;BME280;6600;51.362;6.686;2023-02-28T01:01:02;102610.38;;;2.05;85.55
13068;BME280;6600;51.362;6.686;2023-02-28T01:03:27;102608.56;;;2.06;85.81
13068;BME280;6600;51.362;6.686;2023-02-28T01:05:52;102617.56;;;2.03;85.74
13068;BME280;6600;51.362;6.686;2023-02-28T01:08:18;102623.06;;;2.00;86.43
13068;BME280;6600;51.362;6.686;2023-02-28T01:10:44;102623.03;;;1.89;87.83
13068;BME280;6600;51.362;6.686;2023-02-28T01:13:11;102625.72;;;1.76;88.36
13068;BME280;6600;51.362;6.686;2023-02-28T01:15:38;102615.59;;;1.70;89.14
13068;BME280;6600;51.362;6.686;2023-02-28T01:18:06;102629.34;;;1.63;89.07
13068;BME280;6600;51.362;6.686;2023-02-28T01:20:31;102621.16;;;1.55;89.81
13068;BME280;6600;51.362;6.686;2023-02-28T01:22:57;102620.75;;;1.48;90.35
13068;BME280;6600;51.362;6.686;2023-02-28T01:25:22;102622.25;;;1.39;90.25
13068;BME280;6600;51.362;6.686;2023-02-28T01:27:47;102623.53;;;1.34;90.93
13068;BME280;6600;51.362;6.686;2023-02-28T01:30:13;102614.69;;;1.22;90.71
13068;BME280;6600;51.362;6.686;2023-02-28T01:32:39;102612.38;;;1.18;91.73
13068;BME280;6600;51.362;6.686;2023-02-28T01:35:05;102611.22;;;1.09;91.55
13068;BME280;6600;51.362;6.686;2023-02-28T01:37:30;102615.25;;;1.02;91.95
13068;BME280;6600;51.362;6.686;2023-02-28T01:39:55;102609.03;;;1.03;92.21
13068;BME280;6600;51.362;6.686;2023-02-28T01:42:21;102613.69;;;0.99;92.34
13068;BME280;6600;51.362;6.686;2023-02-28T01:45:18;102615.69;;;0.96;92.64
13068;BME280;6600;51.362;6.686;2023-02-28T01:47:45;102614.63;;;0.86;92.97
13068;BME280;6600;51.362;6.686;2023-02-28T01:50:16;102605.88;;;0.85;93.33
13068;BME280;6600;51.362;6.686;2023-02-28T01:52:43;102601.44;;;0.86;93.18
13068;BME280;6600;51.362;6.686;2023-02-28T01:55:10;102599.97;;;0.82;93.57
13068;BME280;6600;51.362;6.686;2023-02-28T01:57:44;102603.66;;;0.79;94.07
13068;BME280;6600;51.362;6.686;2023-02-28T02:00:13;102591.28;;;0.80;94.23
13068;BME280;6600;51.362;6.686;2023-02-28T02:02:42;102601.63;;;0.83;94.56
13068;BME280;6600;51.362;6.686;2023-02-28T02:05:18;102592.78;;;0.84;95.17
13068;BME280;6600;51.362;6.686;2023-02-28T02:07:46;102597.84;;;0.87;95.43
13068;BME280;6600;51.362;6.686;2023-02-28T02:10:27;102597.84;;;0.87;94.71
13068;BME280;6600;51.362;6.686;2023-02-28T02:18:39;102587.06;;;0.90;95.29
13068;BME280;6600;51.362;6.686;2023-02-28T02:23:51;102586.66;;;0.96;94.34
13068;BME280;6600;51.362;6.686;2023-02-28T02:34:28;102577.19;;;0.68;95.35
13068;BME280;6600;51.362;6.686;2023-02-28T02:37:43;102582.03;;;0.62;95.38
13068;BME280;6600;51.362;6.686;2023-02-28T02:40:18;102573.50;;;0.58;95.97
13068;BME280;6600;51.362;6.686;2023-02-28T02:48:08;102568.41;;;0.42;96.17
13068;BME280;6600;51.362;6.686;2023-02-28T02:50:44;102569.78;;;0.35;96.46
13068;BME280;6600;51.362;6.686;2023-02-28T02:53:12;102572.53;;;0.34;96.42
13068;BME280;6600;51.362;6.686;2023-02-28T02:55:41;102570.09;;;0.31;96.33
13068;BME280;6600;51.362;6.686;2023-02-28T02:58:12;102574.63;;;0.29;97.08
13068;BME280;6600;51.362;6.686;2023-02-28T03:00:46;102572.09;;;0.27;97.17
13068;BME280;6600;51.362;6.686;2023-02-28T03:03:14;102577.38;;;0.27;97.99
13068;BME280;6600;51.362;6.686;2023-02-28T03:05:47;102579.88;;;0.29;97.46
13068;BME280;6600;51.362;6.686;2023-02-28T03:08:14;102573.03;;;0.26;97.85
13068;BME280;6600;51.362;6.686;2023-02-28T03:10:44;102580.94;;;0.26;97.83
13068;BME280;6600;51.362;6.686;2023-02-28T03:22:05;102573.47;;;0.20;97.36
13068;BME280;6600;51.362;6.686;2023-02-28T03:24:45;102568.28;;;0.19;97.09
13068;BME280;6600;51.362;6.686;2023-02-28T03:27:24;102571.47;;;0.24;96.61
13068;BME280;6600;51.362;6.686;2023-02-28T03:29:58;102571.34;;;0.25;96.10
13068;BME280;6600;51.362;6.686;2023-02-28T03:33:03;102567.97;;;0.23;96.98
13068;BME280;6600;51.362;6.686;2023-02-28T03:35:37;102575.34;;;0.18;96.23
13068;BME280;6600;51.362;6.686;2023-02-28T03:38:15;102572.91;;;0.15;96.76
13068;BME280;6600;51.362;6.686;2023-02-28T03:40:48;102580.09;;;0.13;96.89
13068;BME280;6600;51.362;6.686;2023-02-28T03:43:22;102583.03;;;0.21;95.61
13068;BME280;6600;51.362;6.686;2023-02-28T03:45:50;102583.06;;;0.34;93.96
13068;BME280;6600;51.362;6.686;2023-02-28T03:48:23;102573.78;;;0.54;92.85
13068;BME280;6600;51.362;6.686;2023-02-28T03:50:54;102575.28;;;0.58;92.02
13068;BME280;6600;51.362;6.686;2023-02-28T03:53:36;102587.41;;;0.47;93.00
13068;BME280;6600;51.362;6.686;2023-02-28T03:56:11;102584.66;;;0.49;92.81
13068;BME280;6600;51.362;6.686;2023-02-28T03:58:47;102579.16;;;0.39;92.98
13068;BME280;6600;51.362;6.686;2023-02-28T04:01:25;102586.22;;;0.26;93.47
13068;BME280;6600;51.362;6.686;2023-02-28T04:03:53;102586.63;;;0.20;93.90
13068;BME280;6600;51.362;6.686;2023-02-28T04:06:20;102582.19;;;0.08;94.20
13068;BME280;6600;51.362;6.686;2023-02-28T04:08:46;102587.44;;;0.08;93.96
13068;BME280;6600;51.362;6.686;2023-02-28T04:11:44;102592.94;;;0.05;94.42
13068;BME280;6600;51.362;6.686;2023-02-28T04:14:11;102585.97;;;0.04;94.09
13068;BME280;6600;51.362;6.686;2023-02-28T04:16:39;102577.09;;;-0.08;95.04
13068;BME280;6600;51.362;6.686;2023-02-28T04:19:06;102590.69;;;-0.01;94.67
13068;BME280;6600;51.362;6.686;2023-02-28T04:21:34;102591.44;;;0.01;94.73
13068;BME280;6600;51.362;6.686;2023-02-28T04:24:00;102591.03;;;0.07;94.16
13068;BME280;6600;51.362;6.686;2023-02-28T04:26:33;102593.78;;;0.06;93.79
13068;BME280;6600;51.362;6.686;2023-02-28T04:28:59;102597.66;;;0.00;94.11
13068;BME280;6600;51.362;6.686;2023-02-28T04:31:25;102587.88;;;0.02;94.21
13068;BME280;6600;51.362;6.686;2023-02-28T04:33:51;102596.94;;;0.11;93.40
13068;BME280;6600;51.362;6.686;2023-02-28T04:36:17;102590.72;;;0.24;91.92
13068;BME280;6600;51.362;6.686;2023-02-28T04:38:45;102586.75;;;0.31;91.07
13068;BME280;6600;51.362;6.686;2023-02-28T04:41:11;102589.00;;;0.37;90.03
13068;BME280;6600;51.362;6.686;2023-02-28T04:43:36;102597.19;;;0.45;90.40
13068;BME280;6600;51.362;6.686;2023-02-28T04:46:03;102602.38;;;0.47;89.87
13068;BME280;6600;51.362;6.686;2023-02-28T04:48:31;102595.84;;;0.52;88.98
13068;BME280;6600;51.362;6.686;2023-02-28T04:51:08;102599.53;;;0.50;89.62
13068;BME280;6600;51.362;6.686;2023-02-28T04:53:35;102595.72;;;0.41;90.28
13068;BME280;6600;51.362;6.686;2023-02-28T04:56:01;102593.72;;;0.32;90.20
13068;BME280;6600;51.362;6.686;2023-02-28T04:58:26;102593.19;;;0.27;90.00
13068;BME280;6600;51.362;6.686;2023-02-28T05:00:53;102603.91;;;0.24;89.73
13068;BME280;6600;51.362;6.686;2023-02-28T05:03:19;102602.25;;;0.23;90.41
13068;BME280;6600;51.362;6.686;2023-02-28T05:05:46;102601.69;;;0.18;89.97
13068;BME280;6600;51.362;6.686;2023-02-28T05:08:12;102600.91;;;0.04;90.29
13068;BME280;6600;51.362;6.686;2023-02-28T05:10:37;102607.81;;;0.06;90.48
13068;BME280;6600;51.362;6.686;2023-02-28T05:13:02;102600.31;;;0.00;90.91
13068;BME280;6600;51.362;6.686;2023-02-28T05:15:28;102601.25;;;-0.01;91.03
13068;BME280;6600;51.362;6.686;2023-02-28T05:17:53;102603.25;;;0.08;89.75
13068;BME280;6600;51.362;6.686;2023-02-28T05:20:18;102606.44;;;0.13;89.75
13068;BME280;6600;51.362;6.686;2023-02-28T05:22:44;102604.19;;;0.07;90.48
13068;BME280;6600;51.362;6.686;2023-02-28T05:25:16;102616.13;;;0.00;90.18
13068;BME280;6600;51.362;6.686;2023-02-28T05:27:42;102608.94;;;0.02;90.23
13068;BME280;6600;51.362;6.686;2023-02-28T05:30:08;102613.88;;;-0.06;90.26
13068;BME280;6600;51.362;6.686;2023-02-28T05:32:36;102604.66;;;-0.13;90.66
13068;BME280;6600;51.362;6.686;2023-02-28T05:35:03;102610.13;;;-0.16;90.67
13068;BME280;6600;51.362;6.686;2023-02-28T05:37:28;102611.06;;;-0.17;90.56
13068;BME280;6600;51.362;6.686;2023-02-28T05:39:53;102621.53;;;-0.16;90.74
13068;BME280;6600;51.362;6.686;2023-02-28T05:42:18;102618.44;;;-0.22;91.43
13068;BME280;6600;51.362;6.686;2023-02-28T05:44:44;102609.06;;;-0.26;91.52
13068;BME280;6600;51.362;6.686;2023-02-28T05:47:09;102621.03;;;-0.35;91.25
13068;BME280;6600;51.362;6.686;2023-02-28T05:49:35;102616.25;;;-0.42;92.39
13068;BME280;6600;51.362;6.686;2023-02-28T05:52:00;102619.75;;;-0.42;92.28
13068;BME280;6600;51.362;6.686;2023-02-28T05:54:26;102626.22;;;-0.47;92.45
13068;BME280;6600;51.362;6.686;2023-02-28T05:56:51;102617.59;;;-0.49;92.44
13068;BME280;6600;51.362;6.686;2023-02-28T05:59:16;102628.97;;;-0.49;92.31
13068;BME280;6600;51.362;6.686;2023-02-28T06:01:43;102623.72;;;-0.49;93.21
13068;BME280;6600;51.362;6.686;2023-02-28T06:04:17;102632.53;;;-0.50;93.76
13068;BME280;6600;51.362;6.686;2023-02-28T06:06:48;102626.63;;;-0.54;93.71
13068;BME280;6600;51.362;6.686;2023-02-28T06:09:13;102629.16;;;-0.52;93.68
13068;BME280;6600;51.362;6.686;2023-02-28T06:11:39;102631.59;;;-0.49;93.57
13068;BME280;6600;51.362;6.686;2023-02-28T06:14:05;102634.31;;;-0.51;92.74
13068;BME280;6600;51.362;6.686;2023-02-28T06:16:33;102638.47;;;-0.46;93.11
13068;BME280;6600;51.362;6.686;2023-02-28T06:19:00;102643.94;;;-0.49;92.28
13068;BME280;6600;51.362;6.686;2023-02-28T06:21:26;102645.63;;;-0.48;92.22
13068;BME280;6600;51.362;6.686;2023-02-28T06:23:56;102650.94;;;-0.36;91.57
13068;BME280;6600;51.362;6.686;2023-02-28T06:26:21;102653.47;;;-0.34;91.13
13068;BME280;6600;51.362;6.686;2023-02-28T06:28:47;102653.84;;;-0.26;90.43
13068;BME280;6600;51.362;6.686;2023-02-28T06:31:14;102653.78;;;-0.12;88.88
13068;BME280;6600;51.362;6.686;2023-02-28T06:33:41;102654.28;;;0.07;86.34
13068;BME280;6600;51.362;6.686;2023-02-28T06:36:09;102662.13;;;0.21;84.92
13068;BME280;6600;51.362;6.686;2023-02-28T06:38:35;102656.66;;;0.24;85.32
13068;BME280;6600;51.362;6.686;2023-02-28T06:41:01;102654.97;;;0.23;84.61
13068;BME280;6600;51.362;6.686;2023-02-28T06:43:32;102652.56;;;0.33;84.61
13068;BME280;6600;51.362;6.686;2023-02-28T06:46:00;102654.38;;;0.45;85.39
13068;BME280;6600;51.362;6.686;2023-02-28T06:48:26;102667.28;;;1.00;83.31
13068;BME280;6600;51.362;6.686;2023-02-28T06:50:52;102665.75;;;1.46;80.58
13068;BME280;6600;51.362;6.686;2023-02-28T06:53:18;102668.72;;;1.55;78.36
13068;BME280;6600;51.362;6.686;2023-02-28T06:55:43;102676.50;;;1.69;77.86
13068;BME280;6600;51.362;6.686;2023-02-28T06:58:08;102672.47;;;1.63;78.16
13068;BME280;6600;51.362;6.686;2023-02-28T07:00:42;102671.28;;;1.43;77.56
13068;BME280;6600;51.362;6.686;2023-02-28T07:03:09;102666.84;;;1.31;77.93
13068;BME280;6600;51.362;6.686;2023-02-28T07:05:35;102678.28;;;1.19;79.19
13068;BME280;6600;51.362;6.686;2023-02-28T07:08:02;102681.34;;;1.13;78.77
13068;BME280;6600;51.362;6.686;2023-02-28T07:10:28;102681.66;;;1.09;79.16
13068;BME280;6600;51.362;6.686;2023-02-28T07:12:53;102687.78;;;1.09;79.57
13068;BME280;6600;51.362;6.686;2023-02-28T07:15:19;102679.75;;;1.11;79.18
13068;BME280;6600;51.362;6.686;2023-02-28T07:17:44;102676.78;;;1.15;78.81
13068;BME280;6600;51.362;6.686;2023-02-28T07:20:10;102682.72;;;1.19;78.46
13068;BME280;6600;51.362;6.686;2023-02-28T07:22:35;102683.34;;;1.22;78.28
13068;BME280;6600;51.362;6.686;2023-02-28T07:25:01;102686.69;;;1.24;77.71
13068;BME280;6600;51.362;6.686;2023-02-28T07:27:26;102677.31;;;1.33;77.11
13068;BME280;6600;51.362;6.686;2023-02-28T07:29:52;102683.94;;;1.38;76.91
13068;BME280;6600;51.362;6.686;2023-02-28T07:32:18;102681.84;;;1.43;77.47
13068;BME280;6600;51.362;6.686;2023-02-28T07:34:44;102682.34;;;1.48;76.90
13068;BME280;6600;51.362;6.686;2023-02-28T07:37:09;102695.75;;;1.58;76.35
13068;BME280;6600;51.362;6.686;2023-02-28T07:39:35;102693.97;;;1.59;75.99
13068;BME280;6600;51.362;6.686;2023-02-28T07:42:04;102687.06;;;1.69;75.73
13068;BME280;6600;51.362;6.686;2023-02-28T07:44:30;102692.75;;;1.75;74.25
13068;BME280;6600;51.362;6.686;2023-02-28T07:46:55;102693.16;;;1.82;73.64
13068;BME280;6600;51.362;6.686;2023-02-28T07:49:20;102696.81;;;1.92;73.36
13068;BME280;6600;51.362;6.686;2023-02-28T07:51:46;102703.44;;;1.97;73.07
13068;BME280;6600;51.362;6.686;2023-02-28T07:54:11;102695.59;;;2.09;71.78
13068;BME280;6600;51.362;6.686;2023-02-28T07:56:36;102698.13;;;2.10;71.30
13068;BME280;6600;51.362;6.686;2023-02-28T07:59:02;102704.44;;;2.20;69.89
13068;BME280;6600;51.362;6.686;2023-02-28T08:01:27;102710.44;;;2.22;70.12
13068;BME280;6600;51.362;6.686;2023-02-28T08:03:53;102697.94;;;2.24;70.36
13068;BME280;6600;51.362;6.686;2023-02-28T08:06:22;102710.50;;;2.33;69.83
13068;BME280;6600;51.362;6.686;2023-02-28T08:08:48;102712.59;;;2.41;68.74
13068;BME280;6600;51.362;6.686;2023-02-28T08:11:15;102717.66;;;2.44;69.17
13068;BME280;6600;51.362;6.686;2023-02-28T08:13:41;102717.50;;;2.45;69.33
13068;BME280;6600;51.362;6.686;2023-02-28T08:16:09;102716.34;;;2.49;69.82
13068;BME280;6600;51.362;6.686;2023-02-28T08:18:35;102715.66;;;2.59;69.91
13068;BME280;6600;51.362;6.686;2023-02-28T08:21:07;102711.56;;;2.66;68.79
13068;BME280;6600;51.362;6.686;2023-02-28T08:23:32;102711.84;;;2.74;68.55
13068;BME280;6600;51.362;6.686;2023-02-28T08:25:58;102716.56;;;2.81;67.17
13068;BME280;6600;51.362;6.686;2023-02-28T08:28:24;102718.63;;;2.89;65.58
13068;BME280;6600;51.362;6.686;2023-02-28T08:30:49;102710.94;;;2.97;65.00
13068;BME280;6600;51.362;6.686;2023-02-28T08:33:14;102719.75;;;3.09;66.12
13068;BME280;6600;51.362;6.686;2023-02-28T08:35:40;102712.53;;;3.22;64.77
13068;BME280;6600;51.362;6.686;2023-02-28T08:38:05;102717.25;;;3.29;63.91
13068;BME280;6600;51.362;6.686;2023-02-28T08:40:30;102723.03;;;3.34;62.56
13068;BME280;6600;51.362;6.686;2023-02-28T08:42:56;102709.16;;;3.42;66.01
13068;BME280;6600;51.362;6.686;2023-02-28T08:45:21;102719.66;;;3.43;63.64
13068;BME280;6600;51.362;6.686;2023-02-28T08:47:46;102718.69;;;3.55;61.59
13068;BME280;6600;51.362;6.686;2023-02-28T08:50:12;102710.03;;;3.65;60.91
13068;BME280;6600;51.362;6.686;2023-02-28T08:52:42;102725.94;;;3.76;62.05
13068;BME280;6600;51.362;6.686;2023-02-28T08:55:07;102713.72;;;3.73;61.32
13068;BME280;6600;51.362;6.686;2023-02-28T08:57:34;102719.28;;;3.81;60.56
13068;BME280;6600;51.362;6.686;2023-02-28T08:59:59;102714.22;;;3.89;60.26
13068;BME280;6600;51.362;6.686;2023-02-28T09:02:25;102714.22;;;3.78;59.10
13068;BME280;6600;51.362;6.686;2023-02-28T09:04:50;102716.03;;;3.89;59.20
13068;BME280;6600;51.362;6.686;2023-02-28T09:07:15;102711.56;;;3.89;56.13
13068;BME280;6600;51.362;6.686;2023-02-28T09:09:41;102705.41;;;3.89;57.84
13068;BME280;6600;51.362;6.686;2023-02-28T09:12:22;102705.84;;;4.05;59.27
13068;BME280;6600;51.362;6.686;2023-02-28T09:14:47;102703.16;;;4.16;57.67
13068;BME280;6600;51.362;6.686;2023-02-28T09:17:13;102710.88;;;4.19;57.61
13068;BME280;6600;51.362;6.686;2023-02-28T09:19:38;102710.25;;;4.27;57.84
13068;BME280;6600;51.362;6.686;2023-02-28T09:22:03;102701.19;;;4.29;57.42
13068;BME280;6600;51.362;6.686;2023-02-28T09:24:29;102701.44;;;4.26;56.63
13068;BME280;6600;51.362;6.686;2023-02-28T09:26:56;102698.13;;;4.13;55.62
13068;BME280;6600;51.362;6.686;2023-02-28T09:29:22;102704.22;;;4.25;56.45
13068;BME280;6600;51.362;6.686;2023-02-28T09:31:47;102699.72;;;4.36;56.47
13068;BME280;6600;51.362;6.686;2023-02-28T09:34:13;102695.88;;;4.29;55.55
13068;BME280;6600;51.362;6.686;2023-02-28T09:36:38;102708.13;;;4.41;57.30
13068;BME280;6600;51.362;6.686;2023-02-28T09:39:04;102692.38;;;4.61;57.94
13068;BME280;6600;51.362;6.686;2023-02-28T09:41:36;102698.84;;;4.68;57.40
13068;BME280;6600;51.362;6.686;2023-02-28T09:44:07;102700.53;;;4.69;56.32
13068;BME280;6600;51.362;6.686;2023-02-28T09:46:42;102694.97;;;4.72;56.31
13068;BME280;6600;51.362;6.686;2023-02-28T09:49:16;102696.91;;;4.70;56.83
13068;BME280;6600;51.362;6.686;2023-02-28T09:54:16;102693.16;;;4.93;55.81
13068;BME280;6600;51.362;6.686;2023-02-28T09:56:45;102692.50;;;4.80;56.36
13068;BME280;6600;51.362;6.686;2023-02-28T09:59:17;102691.53;;;4.81;54.34
13068;BME280;6600;51.362;6.686;2023-02-28T10:02:29;102686.47;;;4.78;55.10
13068;BME280;6600;51.362;6.686;2023-02-28T10:04:51;102695.28;;;4.78;56.46
13068;BME280;6600;51.362;6.686;2023-02-28T10:07:23;102697.03;;;4.89;56.04
13068;BME280;6600;51.362;6.686;2023-02-28T10:09:57;102697.03;;;4.89;55.48
13068;BME280;6600;51.362;6.686;2023-02-28T10:12:27;102697.88;;;4.89;55.30
13068;BME280;6600;51.362;6.686;2023-02-28T10:14:55;102693.84;;;4.95;54.76
13068;BME280;6600;51.362;6.686;2023-02-28T10:17:35;102692.94;;;5.05;55.70
13068;BME280;6600;51.362;6.686;2023-02-28T10:20:09;102691.81;;;5.08;53.86
13068;BME280;6600;51.362;6.686;2023-02-28T10:22:57;102688.78;;;5.13;54.48
13068;BME280;6600;51.362;6.686;2023-02-28T10:25:26;102699.03;;;5.17;54.22
13068;BME280;6600;51.362;6.686;2023-02-28T10:28:18;102690.56;;;5.33;55.16
13068;BME280;6600;51.362;6.686;2023-02-28T10:30:50;102685.72;;;5.47;54.91
13068;BME280;6600;51.362;6.686;2023-02-28T10:33:22;102677.47;;;5.50;54.90
13068;BME280;6600;51.362;6.686;2023-02-28T10:35:48;102688.44;;;5.67;53.34
13068;BME280;6600;51.362;6.686;2023-02-28T10:38:23;102684.88;;;5.87;51.94
13068;BME280;6600;51.362;6.686;2023-02-28T10:40:50;102677.69;;;5.78;52.53
13068;BME280;6600;51.362;6.686;2023-02-28T10:43:19;102689.69;;;5.93;52.43
13068;BME280;6600;51.362;6.686;2023-02-28T10:46:02;102684.75;;;5.98;51.58
13068;BME280;6600;51.362;6.686;2023-02-28T10:48:34;102678.47;;;5.99;50.93
13068;BME280;6600;51.362;6.686;2023-02-28T10:51:00;102680.69;;;5.94;51.34
13068;BME280;6600;51.362;6.686;2023-02-28T10:58:53;102673.16;;;6.18;51.90
13068;BME280;6600;51.362;6.686;2023-02-28T11:03:45;102672.78;;;5.83;52.64
13068;BME280;6600;51.362;6.686;2023-02-28T11:08:46;102669.91;;;5.86;51.28
13068;BME280;6600;51.362;6.686;2023-02-28T11:11:12;102657.75;;;5.93;51.68
13068;BME280;6600;51.362;6.686;2023-02-28T11:13:38;102659.44;;;6.13;51.54
13068;BME280;6600;51.362;6.686;2023-02-28T11:16:09;102654.53;;;5.99;51.32
13068;BME280;6600;51.362;6.686;2023-02-28T11:18:50;102658.31;;;6.06;51.51
13068;BME280;6600;51.362;6.686;2023-02-28T11:21:27;102646.69;;;6.26;50.55
13068;BME280;6600;51.362;6.686;2023-02-28T11:24:01;102650.75;;;6.40;52.08
13068;BME280;6600;51.362;6.686;2023-02-28T11:26:45;102662.78;;;6.05;50.71
13068;BME280;6600;51.362;6.686;2023-02-28T11:29:31;102651.03;;;6.08;49.96
13068;BME280;6600;51.362;6.686;2023-02-28T11:34:30;102652.59;;;6.20;50.09
13068;BME280;6600;51.362;6.686;2023-02-28T11:36:58;102656.09;;;6.30;50.15
13068;BME280;6600;51.362;6.686;2023-02-28T11:39:25;102641.78;;;6.50;49.73
13068;BME280;6600;51.362;6.686;2023-02-28T11:42:01;102648.47;;;6.74;49.70
13068;BME280;6600;51.362;6.686;2023-02-28T11:48:08;102644.41;;;6.70;50.47
13068;BME280;6600;51.362;6.686;2023-02-28T11:50:52;102645.94;;;6.63;49.03
13068;BME280;6600;51.362;6.686;2023-02-28T11:53:30;102652.72;;;6.47;50.31
13068;BME280;6600;51.362;6.686;2023-02-28T11:56:09;102623.38;;;6.67;51.35
13068;BME280;6600;51.362;6.686;2023-02-28T12:06:49;102648.78;;;6.32;50.73
13068;BME280;6600;51.362;6.686;2023-02-28T12:09:44;102637.03;;;6.25;50.69
13068;BME280;6600;51.362;6.686;2023-02-28T12:12:54;102624.97;;;6.02;52.09
13068;BME280;6600;51.362;6.686;2023-02-28T12:26:44;102615.19;;;6.02;52.37
13068;BME280;6600;51.362;6.686;2023-02-28T12:29:23;102602.56;;;6.14;52.56
13068;BME280;6600;51.362;6.686;2023-02-28T12:34:37;102596.69;;;6.20;51.57
13068;BME280;6600;51.362;6.686;2023-02-28T12:37:15;102600.91;;;6.13;50.20
13068;BME280;6600;51.362;6.686;2023-02-28T12:39:50;102598.50;;;6.10;50.10
13068;BME280;6600;51.362;6.686;2023-02-28T12:42:28;102591.63;;;6.17;52.06
13068;BME280;6600;51.362;6.686;2023-02-28T12:44:59;102596.69;;;6.01;51.29
13068;BME280;6600;51.362;6.686;2023-02-28T12:47:25;102581.00;;;5.98;51.38
13068;BME280;6600;51.362;6.686;2023-02-28T12:49:55;102576.78;;;6.05;50.87
13068;BME280;6600;51.362;6.686;2023-02-28T12:52:47;102580.44;;;6.23;51.65
13068;BME280;6600;51.362;6.686;2023-02-28T12:55:27;102566.28;;;6.23;51.86
13068;BME280;6600;51.362;6.686;2023-02-28T13:01:04;102573.69;;;6.19;50.84
13068;BME280;6600;51.362;6.686;2023-02-28T13:06:26;102575.53;;;6.19;52.51
13068;BME280;6600;51.362;6.686;2023-02-28T13:09:14;102555.75;;;6.21;52.50
13068;BME280;6600;51.362;6.686;2023-02-28T13:11:46;102562.19;;;6.28;51.59
13068;BME280;6600;51.362;6.686;2023-02-28T13:14:36;102559.69;;;6.17;50.35
13068;BME280;6600;51.362;6.686;2023-02-28T13:22:20;102553.53;;;6.17;51.09
13068;BME280;6600;51.362;6.686;2023-02-28T13:24:49;102549.31;;;6.14;50.42
13068;BME280;6600;51.362;6.686;2023-02-28T13:27:38;102540.66;;;6.12;51.61
13068;BME280;6600;51.362;6.686;2023-02-28T13:33:28;102546.78;;;6.32;51.42
13068;BME280;6600;51.362;6.686;2023-02-28T13:36:07;102526.31;;;6.32;51.62
13068;BME280;6600;51.362;6.686;2023-02-28T13:38:39;102530.53;;;6.25;51.19
13068;BME280;6600;51.362;6.686;2023-02-28T13:44:21;102525.19;;;6.35;51.70
13068;BME280;6600;51.362;6.686;2023-02-28T14:05:21;102512.00;;;6.43;51.81
13068;BME280;6600;51.362;6.686;2023-02-28T14:07:53;102517.34;;;6.33;51.78
13068;BME280;6600;51.362;6.686;2023-02-28T14:10:37;102508.91;;;6.38;51.14
13068;BME280;6600;51.362;6.686;2023-02-28T14:15:47;102511.44;;;6.39;51.58
13068;BME280;6600;51.362;6.686;2023-02-28T14:18:18;102499.69;;;6.32;52.21
13068;BME280;6600;51.362;6.686;2023-02-28T14:20:47;102510.63;;;6.29;53.89
13068;BME280;6600;51.362;6.686;2023-02-28T14:37:14;102496.41;;;6.01;54.44
13068;BME280;6600;51.362;6.686;2023-02-28T14:39:43;102502.56;;;6.02;54.67
13068;BME280;6600;51.362;6.686;2023-02-28T14:42:36;102497.78;;;6.15;55.37
13068;BME280;6600;51.362;6.686;2023-02-28T14:45:22;102491.88;;;6.21;53.53
13068;BME280;6600;51.362;6.686;2023-02-28T14:47:50;102482.59;;;6.35;54.66
13068;BME280;6600;51.362;6.686;2023-02-28T14:50:21;102491.28;;;6.37;54.61
13068;BME280;6600;51.362;6.686;2023-02-28T14:52:48;102485.81;;;6.38;53.13
13068;BME280;6600;51.362;6.686;2023-02-28T14:55:17;102492.69;;;6.31;52.77
13068;BME280;6600;51.362;6.686;2023-02-28T14:57:58;102487.09;;;6.34;54.22
13068;BME280;6600;51.362;6.686;2023-02-28T15:00:32;102488.50;;;6.29;57.04
13068;BME280;6600;51.362;6.686;2023-02-28T15:02:59;102482.50;;;6.17;57.52
13068;BME280;6600;51.362;6.686;2023-02-28T15:05:30;102494.69;;;6.20;57.51
13068;BME280;6600;51.362;6.686;2023-02-28T15:08:15;102481.28;;;6.02;56.96
13068;BME280;6600;51.362;6.686;2023-02-28T15:10:54;102480.16;;;5.85;57.42
13068;BME280;6600;51.362;6.686;2023-02-28T15:13:21;102482.56;;;5.79;58.10
13068;BME280;6600;51.362;6.686;2023-02-28T15:16:01;102485.50;;;5.76;58.12
13068;BME280;6600;51.362;6.686;2023-02-28T15:18:38;102492.19;;;5.80;58.01
13068;BME280;6600;51.362;6.686;2023-02-28T15:21:26;102483.13;;;5.92;57.63
13068;BME280;6600;51.362;6.686;2023-02-28T15:24:17;102492.06;;;5.81;58.11
13068;BME280;6600;51.362;6.686;2023-02-28T15:26:53;102482.41;;;5.71;59.13
13068;BME280;6600;51.362;6.686;2023-02-28T15:29:22;102492.59;;;5.66;59.25